Time;durP1;ratioP1;P1;durP2;ratioP2;P2;SDS_P1;SDS_P2;PMS_P1;PMS_P2;Temp;Humidity;BMP_temperature;BMP_pressure;BME280_temperature;BME280_humidity;BME280_pressure;Samples;Min_cycle;Max_cycle;Signal;HPM_P1;HPM_P2
2020/12/31 00:02:22;;;;;;;18.17;9.82;;;;;;;;;;4889339;29;20036;-70
2020/12/31 00:04:48;;;;;;;15.82;8.93;;;;;;;;;;4894535;29;20044;-70
2020/12/31 00:07:14;;;;;;;13.50;8.18;;;;;;;;;;4892343;29;20093;-70
2020/12/31 00:09:41;;;;;;;14.57;8.32;;;;;;;;;;4889228;29;20053;-70
2020/12/31 00:12:07;;;;;;;12.75;7.30;;;;;;;;;;4894437;29;20045;-70
2020/12/31 00:14:33;;;;;;;12.18;6.55;;;;;;;;;;4889670;29;20056;-70
2020/12/31 00:16:59;;;;;;;12.05;6.70;;;;;;;;;;4895740;29;20077;-70
2020/12/31 00:19:25;;;;;;;11.20;6.40;;;;;;;;;;4891115;29;20041;-71
2020/12/31 00:21:51;;;;;;;9.00;5.88;;;;;;;;;;4893433;29;20056;-70
2020/12/31 00:24:18;;;;;;;10.80;7.13;;;;;;;;;;4889501;29;20049;-70
2020/12/31 00:26:44;;;;;;;10.25;6.03;;;;;;;;;;4887333;29;20049;-70
2020/12/31 00:29:10;;;;;;;9.15;6.10;;;;;;;;;;4891777;29;20047;-70
2020/12/31 00:31:36;;;;;;;13.52;6.78;;;;;;;;;;4888041;29;20097;-70
2020/12/31 00:34:03;;;;;;;8.05;5.40;;;;;;;;;;4878175;29;20056;-70
2020/12/31 00:36:29;;;;;;;11.67;6.23;;;;;;;;;;4888372;29;20092;-70
2020/12/31 00:38:55;;;;;;;7.85;5.53;;;;;;;;;;4897839;29;20293;-70
2020/12/31 00:41:22;;;;;;;10.18;6.35;;;;;;;;;;4898911;29;20119;-70
2020/12/31 00:43:48;;;;;;;10.80;6.10;;;;;;;;;;4897289;29;20097;-70
2020/12/31 00:46:15;;;;;;;10.65;4.53;;;;;;;;;;4896842;29;20147;-70
2020/12/31 00:48:41;;;;;;;9.38;5.70;;;;;;;;;;4897617;29;20051;-70
2020/12/31 00:51:08;;;;;;;9.73;5.93;;;;;;;;;;4895263;29;20045;-70
2020/12/31 00:53:34;;;;;;;7.20;4.47;;;;;;;;;;4897523;29;20573;-70
2020/12/31 00:56:02;;;;;;;8.20;5.13;;;;;;;;;;4896263;29;20039;-70
2020/12/31 00:58:31;;;;;;;10.85;5.50;;;;;;;;;;4896407;29;20044;-70
2020/12/31 01:00:58;;;;;;;7.40;5.15;;;;;;;;;;4897300;29;20068;-70
2020/12/31 01:03:24;;;;;;;7.93;5.25;;;;;;;;;;4897045;29;20048;-70
2020/12/31 01:05:50;;;;;;;13.70;5.85;;;;;;;;;;4897858;29;20068;-70
2020/12/31 01:08:16;;;;;;;6.53;4.57;;;;;;;;;;4896244;29;20040;-70
2020/12/31 01:10:43;;;;;;;5.80;4.00;;;;;;;;;;4890944;29;20512;-70
2020/12/31 01:13:09;;;;;;;7.90;4.57;;;;;;;;;;4896453;29;20080;-71
2020/12/31 01:15:36;;;;;;;5.55;3.72;;;;;;;;;;4896401;29;20135;-70
2020/12/31 01:18:02;;;;;;;6.45;4.38;;;;;;;;;;4897428;29;20045;-70
2020/12/31 01:20:28;;;;;;;5.07;3.25;;;;;;;;;;4892237;29;20096;-70
2020/12/31 01:22:55;;;;;;;5.97;4.20;;;;;;;;;;4895189;29;20091;-70
2020/12/31 01:25:21;;;;;;;7.25;3.80;;;;;;;;;;4892560;29;20053;-70
2020/12/31 01:27:47;;;;;;;5.25;3.70;;;;;;;;;;4897485;29;20127;-70
2020/12/31 01:30:13;;;;;;;6.82;3.60;;;;;;;;;;4901193;29;20044;-70
2020/12/31 01:32:39;;;;;;;5.20;3.85;;;;;;;;;;4892840;29;20144;-71
2020/12/31 01:35:06;;;;;;;5.35;3.65;;;;;;;;;;4895055;29;20095;-70
2020/12/31 01:37:33;;;;;;;6.97;4.07;;;;;;;;;;4890621;29;20049;-70
2020/12/31 01:39:59;;;;;;;5.70;4.13;;;;;;;;;;4896169;29;20089;-70
2020/12/31 01:42:26;;;;;;;5.00;3.60;;;;;;;;;;4895938;29;20112;-70
2020/12/31 01:44:52;;;;;;;5.90;4.03;;;;;;;;;;4892322;29;20494;-70
2020/12/31 01:47:18;;;;;;;5.72;4.10;;;;;;;;;;4893223;29;20450;-70
2020/12/31 01:49:45;;;;;;;5.60;3.95;;;;;;;;;;4892026;29;20553;-70
2020/12/31 01:52:13;;;;;;;7.15;4.15;;;;;;;;;;4880426;29;20041;-70
2020/12/31 01:54:39;;;;;;;5.53;3.90;;;;;;;;;;4897131;29;20047;-71
2020/12/31 01:57:08;;;;;;;5.53;3.88;;;;;;;;;;4896132;29;20072;-70
2020/12/31 01:59:34;;;;;;;6.38;4.50;;;;;;;;;;4894440;29;20081;-70
2020/12/31 02:02:00;;;;;;;6.18;4.07;;;;;;;;;;4891951;29;20063;-70
2020/12/31 02:04:27;;;;;;;6.07;4.32;;;;;;;;;;4893911;29;20041;-70
2020/12/31 02:06:53;;;;;;;5.15;3.35;;;;;;;;;;4897500;29;20048;-70
2020/12/31 02:09:19;;;;;;;5.10;3.13;;;;;;;;;;4890678;29;20059;-70
2020/12/31 02:11:45;;;;;;;5.53;4.15;;;;;;;;;;4890630;29;20184;-70
2020/12/31 02:14:11;;;;;;;6.65;4.85;;;;;;;;;;4893133;29;20536;-70
2020/12/31 02:16:38;;;;;;;8.48;4.75;;;;;;;;;;4887279;29;20045;-71
2020/12/31 02:19:09;;;;;;;6.35;4.53;;;;;;;;;;4894340;29;20037;-70
2020/12/31 02:21:36;;;;;;;7.40;5.00;;;;;;;;;;4884566;29;20064;-70
2020/12/31 02:24:03;;;;;;;8.10;5.20;;;;;;;;;;4890966;29;20128;-70
2020/12/31 02:26:30;;;;;;;6.53;4.82;;;;;;;;;;4896951;29;20043;-70
2020/12/31 02:28:57;;;;;;;7.95;5.13;;;;;;;;;;4896524;29;20060;-70
2020/12/31 02:31:24;;;;;;;7.65;4.88;;;;;;;;;;4897305;29;20048;-70
2020/12/31 02:33:51;;;;;;;8.98;5.63;;;;;;;;;;4893800;29;20081;-70
2020/12/31 02:36:18;;;;;;;8.43;5.22;;;;;;;;;;4895255;29;20457;-70
2020/12/31 02:38:44;;;;;;;10.50;5.90;;;;;;;;;;4895029;29;20052;-70
2020/12/31 02:41:10;;;;;;;9.50;5.50;;;;;;;;;;4896045;29;20104;-70
2020/12/31 02:43:37;;;;;;;10.85;5.38;;;;;;;;;;4896863;29;20438;-70
2020/12/31 02:46:06;;;;;;;7.15;5.40;;;;;;;;;;4894844;29;20068;-70
2020/12/31 02:48:32;;;;;;;8.82;6.00;;;;;;;;;;4888637;29;20041;-70
2020/12/31 02:50:59;;;;;;;8.80;6.07;;;;;;;;;;4896116;29;20044;-70
2020/12/31 02:53:26;;;;;;;8.82;5.47;;;;;;;;;;4896235;29;20044;-70
2020/12/31 02:55:52;;;;;;;9.65;6.25;;;;;;;;;;4895029;29;20104;-70
2020/12/31 02:58:18;;;;;;;13.82;6.53;;;;;;;;;;4894647;29;20044;-70
2020/12/31 03:00:44;;;;;;;9.68;6.55;;;;;;;;;;4891621;29;20053;-70
2020/12/31 03:03:10;;;;;;;10.35;5.82;;;;;;;;;;4890134;29;20041;-70
2020/12/31 03:05:37;;;;;;;10.07;6.18;;;;;;;;;;4896035;29;20072;-70
2020/12/31 03:08:03;;;;;;;13.15;6.72;;;;;;;;;;4890976;29;20036;-70
2020/12/31 03:10:29;;;;;;;9.38;6.43;;;;;;;;;;4892053;29;20109;-70
2020/12/31 03:12:55;;;;;;;9.43;6.38;;;;;;;;;;4887447;29;20482;-70
2020/12/31 03:15:22;;;;;;;10.50;6.82;;;;;;;;;;4895012;29;20049;-70
2020/12/31 03:17:49;;;;;;;10.70;6.57;;;;;;;;;;4893225;29;20052;-70
2020/12/31 03:20:15;;;;;;;15.13;6.38;;;;;;;;;;4897558;29;20292;-69
2020/12/31 03:22:41;;;;;;;9.95;6.15;;;;;;;;;;4888857;29;20053;-69
2020/12/31 03:25:07;;;;;;;8.75;6.15;;;;;;;;;;4894130;29;20048;-69
2020/12/31 03:27:33;;;;;;;7.47;4.93;;;;;;;;;;4894402;29;20044;-70
2020/12/31 03:29:59;;;;;;;8.98;5.70;;;;;;;;;;4892166;29;20040;-70
2020/12/31 03:32:25;;;;;;;9.63;5.82;;;;;;;;;;4893283;29;20040;-70
2020/12/31 03:34:51;;;;;;;9.82;6.15;;;;;;;;;;4897599;29;20075;-70
2020/12/31 03:37:18;;;;;;;9.75;6.20;;;;;;;;;;4895120;29;20048;-71
2020/12/31 03:39:44;;;;;;;9.45;6.10;;;;;;;;;;4895691;29;20055;-70
2020/12/31 03:42:11;;;;;;;10.05;6.03;;;;;;;;;;4892920;29;20589;-70
2020/12/31 03:44:37;;;;;;;10.37;6.93;;;;;;;;;;4890554;29;20049;-71
2020/12/31 03:47:03;;;;;;;10.98;5.85;;;;;;;;;;4891911;29;20296;-70
2020/12/31 03:49:29;;;;;;;10.02;6.13;;;;;;;;;;4895654;29;20509;-70
2020/12/31 03:51:56;;;;;;;9.93;5.60;;;;;;;;;;4896274;29;20175;-70
2020/12/31 03:54:22;;;;;;;10.03;6.50;;;;;;;;;;4893850;29;20104;-71
2020/12/31 03:56:48;;;;;;;8.35;5.78;;;;;;;;;;4892154;29;20128;-70
2020/12/31 03:59:14;;;;;;;10.25;6.47;;;;;;;;;;4895662;29;20056;-70
2020/12/31 04:01:40;;;;;;;9.02;5.40;;;;;;;;;;4895482;29;20489;-70
2020/12/31 04:04:06;;;;;;;8.98;5.68;;;;;;;;;;4894781;29;20048;-70
2020/12/31 04:06:32;;;;;;;9.68;5.88;;;;;;;;;;4890603;29;20047;-71
2020/12/31 04:08:58;;;;;;;8.77;5.82;;;;;;;;;;4894509;29;20637;-70
2020/12/31 04:11:25;;;;;;;9.32;5.85;;;;;;;;;;4891584;29;20104;-70
2020/12/31 04:13:51;;;;;;;8.27;5.32;;;;;;;;;;4897885;29;20148;-71
2020/12/31 04:16:17;;;;;;;9.23;5.65;;;;;;;;;;4896422;29;20592;-70
2020/12/31 04:18:43;;;;;;;11.68;5.88;;;;;;;;;;4895935;29;20037;-70
2020/12/31 04:21:09;;;;;;;8.32;5.80;;;;;;;;;;4896801;29;20096;-70
2020/12/31 04:23:37;;;;;;;9.73;5.80;;;;;;;;;;4897963;29;20105;-70
2020/12/31 04:26:04;;;;;;;8.57;5.57;;;;;;;;;;4898306;29;20048;-70
2020/12/31 04:28:30;;;;;;;8.52;5.93;;;;;;;;;;4897195;29;20053;-71
2020/12/31 04:30:56;;;;;;;10.40;6.00;;;;;;;;;;4898574;29;20379;-70
2020/12/31 04:33:23;;;;;;;9.07;6.07;;;;;;;;;;4895997;29;20052;-70
2020/12/31 04:35:49;;;;;;;11.05;6.30;;;;;;;;;;4897782;29;20112;-70
2020/12/31 04:38:15;;;;;;;10.05;5.88;;;;;;;;;;4894894;29;20107;-71
2020/12/31 04:40:42;;;;;;;9.40;6.10;;;;;;;;;;4897345;29;20096;-70
2020/12/31 04:43:09;;;;;;;11.15;6.15;;;;;;;;;;4896733;29;20495;-69
2020/12/31 04:45:37;;;;;;;7.87;5.23;;;;;;;;;;4897255;29;20055;-69
2020/12/31 04:48:08;;;;;;;9.52;5.85;;;;;;;;;;4895269;29;20299;-69
2020/12/31 04:50:38;;;;;;;11.70;6.20;;;;;;;;;;4890501;29;20398;-69
2020/12/31 04:53:06;;;;;;;9.43;5.90;;;;;;;;;;4896195;29;20108;-69
2020/12/31 04:55:39;;;;;;;9.50;5.88;;;;;;;;;;4897135;29;20048;-69
2020/12/31 04:58:07;;;;;;;9.27;5.50;;;;;;;;;;4897939;29;20052;-69
2020/12/31 05:00:33;;;;;;;;;;;;;;;;;;4894484;29;20408;-69
2020/12/31 05:02:59;;;;;;;9.18;5.68;;;;;;;;;;4896736;29;19923;-69
2020/12/31 05:05:26;;;;;;;7.97;5.40;;;;;;;;;;4898039;29;20052;-69
2020/12/31 05:07:52;;;;;;;9.98;6.45;;;;;;;;;;4898881;29;20527;-69
2020/12/31 05:10:18;;;;;;;10.82;6.03;;;;;;;;;;4898370;29;20049;-69
2020/12/31 05:12:44;;;;;;;10.18;5.95;;;;;;;;;;4882701;29;20513;-69
2020/12/31 05:15:10;;;;;;;9.27;5.50;;;;;;;;;;4898553;29;20496;-69
2020/12/31 05:17:36;;;;;;;12.80;5.82;;;;;;;;;;4895922;29;20536;-69
2020/12/31 05:20:13;;;;;;;9.07;5.72;;;;;;;;;;4896689;29;20564;-69
2020/12/31 05:22:39;;;;;;;10.13;5.55;;;;;;;;;;4879653;29;20386;-69
2020/12/31 05:25:06;;;;;;;10.60;5.90;;;;;;;;;;4897801;29;20056;-69
2020/12/31 05:27:33;;;;;;;9.10;5.60;;;;;;;;;;4895091;29;20397;-69
2020/12/31 05:30:06;;;;;;;9.65;5.75;;;;;;;;;;4897372;29;20049;-69
2020/12/31 05:32:36;;;;;;;8.50;5.45;;;;;;;;;;4895687;29;20061;-69
2020/12/31 05:35:12;;;;;;;9.88;5.75;;;;;;;;;;4895110;29;20556;-69
2020/12/31 05:37:39;;;;;;;8.60;5.43;;;;;;;;;;4890744;29;20056;-69
2020/12/31 05:40:07;;;;;;;8.63;5.78;;;;;;;;;;4898037;29;20112;-69
2020/12/31 05:42:34;;;;;;;7.82;5.28;;;;;;;;;;4891898;29;20516;-69
2020/12/31 05:45:01;;;;;;;;;;;;;;;;;;4894103;29;20052;-69
2020/12/31 05:47:27;;;;;;;7.88;4.97;;;;;;;;;;4891826;29;20582;-69
2020/12/31 05:49:53;;;;;;;8.60;5.68;;;;;;;;;;4890213;29;20104;-69
2020/12/31 05:52:36;;;;;;;9.77;6.30;;;;;;;;;;4897321;29;20051;-69
2020/12/31 05:55:04;;;;;;;11.00;5.63;;;;;;;;;;4893533;29;20045;-69
2020/12/31 05:57:40;;;;;;;10.27;6.10;;;;;;;;;;4895977;29;20041;-69
2020/12/31 06:00:07;;;;;;;8.50;5.50;;;;;;;;;;4897128;29;20048;-69
2020/12/31 06:02:40;;;;;;;9.20;5.38;;;;;;;;;;4887939;29;20052;-70
2020/12/31 06:05:15;;;;;;;10.05;6.00;;;;;;;;;;4895864;29;20108;-69
2020/12/31 06:07:42;;;;;;;10.50;5.53;;;;;;;;;;4893036;29;20045;-69
2020/12/31 06:10:09;;;;;;;9.73;5.65;;;;;;;;;;4895992;29;20045;-69
2020/12/31 06:12:42;;;;;;;8.40;5.75;;;;;;;;;;4895320;29;20176;-70
2020/12/31 06:15:09;;;;;;;8.60;5.45;;;;;;;;;;4894343;29;20053;-69
2020/12/31 06:17:46;;;;;;;10.17;5.97;;;;;;;;;;4895292;29;20513;-69
2020/12/31 06:20:22;;;;;;;12.40;5.75;;;;;;;;;;4891558;29;20067;-69
2020/12/31 06:23:01;;;;;;;8.90;5.45;;;;;;;;;;4886986;29;20084;-70
2020/12/31 06:25:31;;;;;;;8.90;5.57;;;;;;;;;;4893007;29;20601;-69
2020/12/31 06:28:04;;;;;;;9.15;4.78;;;;;;;;;;4893772;29;20084;-69
2020/12/31 06:30:30;;;;;;;8.25;5.35;;;;;;;;;;4895466;29;20092;-69
2020/12/31 06:32:57;;;;;;;9.50;6.05;;;;;;;;;;4895452;29;20055;-69
2020/12/31 06:35:26;;;;;;;9.93;5.57;;;;;;;;;;4893521;29;20523;-69
2020/12/31 06:38:00;;;;;;;9.68;5.93;;;;;;;;;;4889917;29;20068;-69
2020/12/31 06:40:30;;;;;;;9.23;5.32;;;;;;;;;;4900699;29;20151;-69
2020/12/31 06:43:11;;;;;;;7.18;4.75;;;;;;;;;;4892876;29;20053;-70
2020/12/31 06:45:44;;;;;;;6.20;3.97;;;;;;;;;;4892318;29;20048;-69
2020/12/31 06:48:22;;;;;;;9.00;4.35;;;;;;;;;;4894268;29;20079;-69
2020/12/31 06:50:59;;;;;;;8.07;4.82;;;;;;;;;;4892392;29;20044;-69
2020/12/31 06:53:45;;;;;;;7.57;4.47;;;;;;;;;;4894017;29;20040;-69
2020/12/31 06:56:36;;;;;;;7.75;4.60;;;;;;;;;;4894729;29;20073;-69
2020/12/31 06:59:22;;;;;;;7.00;4.82;;;;;;;;;;4892293;29;20176;-69
2020/12/31 07:01:48;;;;;;;8.23;4.65;;;;;;;;;;4895395;29;20075;-69
2020/12/31 07:04:43;;;;;;;7.72;4.13;;;;;;;;;;4894543;29;20507;-69
2020/12/31 07:07:19;;;;;;;8.75;4.85;;;;;;;;;;4887651;29;20057;-69
2020/12/31 07:09:51;;;;;;;7.32;4.57;;;;;;;;;;4895416;29;20114;-69
2020/12/31 07:12:30;;;;;;;7.45;4.95;;;;;;;;;;4893927;29;20048;-69
2020/12/31 07:14:56;;;;;;;7.47;4.38;;;;;;;;;;4893614;29;20407;-69
2020/12/31 07:17:22;;;;;;;11.35;4.68;;;;;;;;;;4889703;29;20077;-69
2020/12/31 07:19:54;;;;;;;7.25;4.43;;;;;;;;;;4892775;29;20045;-69
2020/12/31 07:22:21;;;;;;;7.82;4.45;;;;;;;;;;4893773;29;20060;-70
2020/12/31 07:24:57;;;;;;;7.85;3.83;;;;;;;;;;4895524;29;20059;-69
2020/12/31 07:27:31;;;;;;;9.45;5.22;;;;;;;;;;4853906;29;20044;-69
2020/12/31 07:30:03;;;;;;;8.82;4.85;;;;;;;;;;4895728;29;20128;-69
2020/12/31 07:32:48;;;;;;;9.45;5.15;;;;;;;;;;4890601;29;20048;-69
2020/12/31 07:35:22;;;;;;;8.30;4.50;;;;;;;;;;4891098;29;20041;-69
2020/12/31 07:37:55;;;;;;;7.95;4.28;;;;;;;;;;4894038;29;20409;-69
2020/12/31 07:40:25;;;;;;;7.68;4.85;;;;;;;;;;4894227;29;20104;-69
2020/12/31 07:42:51;;;;;;;9.45;4.95;;;;;;;;;;4889198;29;20081;-69
2020/12/31 07:45:17;;;;;;;8.65;4.78;;;;;;;;;;4886754;29;20108;-69
2020/12/31 07:47:48;;;;;;;10.68;4.82;;;;;;;;;;4892084;29;20497;-69
2020/12/31 07:50:14;;;;;;;7.93;4.75;;;;;;;;;;4891848;29;20096;-69
2020/12/31 07:52:40;;;;;;;8.68;5.15;;;;;;;;;;4891192;29;20040;-69
2020/12/31 07:55:07;;;;;;;8.52;4.70;;;;;;;;;;4891875;29;20123;-69
2020/12/31 07:57:36;;;;;;;7.35;4.20;;;;;;;;;;4891691;29;20577;-69
2020/12/31 08:00:02;;;;;;;7.57;4.68;;;;;;;;;;4893452;29;20138;-69
2020/12/31 08:02:30;;;;;;;9.18;4.90;;;;;;;;;;4890741;29;20055;-69
2020/12/31 08:04:56;;;;;;;7.82;4.45;;;;;;;;;;4890899;29;20052;-69
2020/12/31 08:07:23;;;;;;;11.38;4.80;;;;;;;;;;4889999;29;20512;-69
2020/12/31 08:09:49;;;;;;;8.02;4.63;;;;;;;;;;4890653;29;20527;-69
2020/12/31 08:12:16;;;;;;;6.80;3.50;;;;;;;;;;4892702;29;20193;-69
2020/12/31 08:14:43;;;;;;;7.75;4.63;;;;;;;;;;4890304;29;20119;-69
2020/12/31 08:17:09;;;;;;;6.72;4.18;;;;;;;;;;4888309;29;20040;-70
2020/12/31 08:19:39;;;;;;;7.90;4.50;;;;;;;;;;4892745;29;20131;-69
2020/12/31 08:22:17;;;;;;;8.60;3.70;;;;;;;;;;4894240;29;20060;-69
2020/12/31 08:24:47;;;;;;;7.15;3.80;;;;;;;;;;4889938;29;20458;-69
2020/12/31 08:27:17;;;;;;;8.05;4.00;;;;;;;;;;4894720;29;20044;-69
2020/12/31 08:29:44;;;;;;;6.63;3.85;;;;;;;;;;4889528;29;20417;-69
2020/12/31 08:32:17;;;;;;;6.88;4.00;;;;;;;;;;4855871;29;20124;-69
2020/12/31 08:34:44;;;;;;;6.28;3.97;;;;;;;;;;4890782;29;20041;-69
2020/12/31 08:37:14;;;;;;;5.77;3.53;;;;;;;;;;4892864;29;20048;-70
2020/12/31 08:39:41;;;;;;;5.97;3.83;;;;;;;;;;4891015;29;20303;-69
2020/12/31 08:42:12;;;;;;;6.35;4.22;;;;;;;;;;4877935;29;20065;-69
2020/12/31 08:44:43;;;;;;;7.25;4.72;;;;;;;;;;4891685;29;20104;-69
2020/12/31 08:47:25;;;;;;;7.63;4.00;;;;;;;;;;4893640;29;20040;-69
2020/12/31 08:49:54;;;;;;;4.78;3.50;;;;;;;;;;4891369;29;20053;-69
2020/12/31 08:52:27;;;;;;;6.90;3.90;;;;;;;;;;4876922;29;20744;-69
2020/12/31 08:55:11;;;;;;;7.63;3.65;;;;;;;;;;4891682;29;20073;-69
2020/12/31 08:57:38;;;;;;;6.55;3.45;;;;;;;;;;4893872;29;20172;-69
2020/12/31 09:00:06;;;;;;;5.22;3.28;;;;;;;;;;4891089;29;20056;-70
2020/12/31 09:02:32;;;;;;;4.63;3.25;;;;;;;;;;4898335;29;20048;-69
2020/12/31 09:05:12;;;;;;;4.47;2.97;;;;;;;;;;4891594;29;20441;-70
2020/12/31 09:07:38;;;;;;;4.95;3.30;;;;;;;;;;4897923;29;20360;-69
2020/12/31 09:10:18;;;;;;;5.53;3.53;;;;;;;;;;4894599;29;20567;-69
2020/12/31 09:12:45;;;;;;;6.00;3.20;;;;;;;;;;4894646;29;20386;-69
2020/12/31 09:15:19;;;;;;;4.30;2.95;;;;;;;;;;4894548;29;20044;-69
2020/12/31 09:17:45;;;;;;;3.88;2.78;;;;;;;;;;4889788;29;20053;-70
2020/12/31 09:20:18;;;;;;;4.40;2.88;;;;;;;;;;4893990;29;20050;-69
2020/12/31 09:22:45;;;;;;;4.20;2.33;;;;;;;;;;4891981;29;20052;-69
2020/12/31 09:25:11;;;;;;;3.20;2.15;;;;;;;;;;4893774;29;20049;-70
2020/12/31 09:27:39;;;;;;;3.40;2.20;;;;;;;;;;4897739;29;20060;-70
2020/12/31 09:30:06;;;;;;;5.22;2.28;;;;;;;;;;4896922;29;20048;-70
2020/12/31 09:32:32;;;;;;;4.28;2.08;;;;;;;;;;4896077;29;20501;-70
2020/12/31 09:35:01;;;;;;;3.22;2.25;;;;;;;;;;4896593;29;20045;-70
2020/12/31 09:37:28;;;;;;;1.88;1.52;;;;;;;;;;4896949;29;20048;-69
2020/12/31 09:39:54;;;;;;;2.28;1.30;;;;;;;;;;4897347;29;20044;-69
2020/12/31 09:42:21;;;;;;;2.75;1.50;;;;;;;;;;4897933;29;20048;-69
2020/12/31 09:44:47;;;;;;;1.33;0.90;;;;;;;;;;4897652;29;20055;-70
2020/12/31 09:47:13;;;;;;;1.55;1.10;;;;;;;;;;4893986;29;20076;-69
2020/12/31 09:49:40;;;;;;;1.77;0.80;;;;;;;;;;4892346;29;20096;-69
2020/12/31 09:52:06;;;;;;;1.08;0.77;;;;;;;;;;4893701;29;20049;-69
2020/12/31 09:54:32;;;;;;;1.23;1.00;;;;;;;;;;4892673;29;20122;-69
2020/12/31 09:56:58;;;;;;;2.58;1.42;;;;;;;;;;4892226;29;20052;-69
2020/12/31 09:59:24;;;;;;;3.03;1.85;;;;;;;;;;4897704;29;20050;-69
2020/12/31 10:01:51;;;;;;;1.30;1.10;;;;;;;;;;4897134;29;20040;-69
2020/12/31 10:04:17;;;;;;;1.80;1.08;;;;;;;;;;4889275;29;20128;-69
2020/12/31 10:06:44;;;;;;;2.20;0.68;;;;;;;;;;4893083;29;20044;-69
2020/12/31 10:09:14;;;;;;;0.73;0.65;;;;;;;;;;4895386;29;20088;-69
2020/12/31 10:11:44;;;;;;;1.15;0.90;;;;;;;;;;4888779;29;20052;-69
2020/12/31 10:14:11;;;;;;;3.78;0.95;;;;;;;;;;4895506;29;20116;-69
2020/12/31 10:16:37;;;;;;;1.35;0.98;;;;;;;;;;4895595;29;20736;-69
2020/12/31 10:19:03;;;;;;;1.92;0.73;;;;;;;;;;4897418;29;20056;-69
2020/12/31 10:21:29;;;;;;;0.60;0.60;;;;;;;;;;4875634;29;20068;-69
2020/12/31 10:23:55;;;;;;;0.93;0.63;;;;;;;;;;4889217;29;20505;-69
2020/12/31 10:26:21;;;;;;;1.30;1.05;;;;;;;;;;4898860;29;20912;-69
2020/12/31 10:28:47;;;;;;;1.63;0.90;;;;;;;;;;4893804;29;20131;-69
2020/12/31 10:31:14;;;;;;;2.30;1.10;;;;;;;;;;4895993;29;20051;-69
2020/12/31 10:33:40;;;;;;;1.77;0.80;;;;;;;;;;4893769;29;20044;-69
2020/12/31 10:36:07;;;;;;;1.98;1.02;;;;;;;;;;4895967;29;20509;-69
2020/12/31 10:38:38;;;;;;;1.63;0.90;;;;;;;;;;4892886;29;20052;-69
2020/12/31 10:41:07;;;;;;;1.30;1.02;;;;;;;;;;4892318;29;20564;-69
2020/12/31 10:43:33;;;;;;;1.10;1.00;;;;;;;;;;4894738;29;20108;-70
2020/12/31 10:46:00;;;;;;;1.38;1.02;;;;;;;;;;4892081;29;20553;-71
2020/12/31 10:48:26;;;;;;;2.42;0.98;;;;;;;;;;4892213;29;20095;-71
2020/12/31 10:50:52;;;;;;;1.65;1.27;;;;;;;;;;4889534;29;20045;-71
2020/12/31 10:53:18;;;;;;;2.03;1.10;;;;;;;;;;4896290;29;20047;-71
2020/12/31 10:55:44;;;;;;;1.92;1.17;;;;;;;;;;4891855;29;20092;-71
2020/12/31 10:58:10;;;;;;;1.05;0.98;;;;;;;;;;4895556;29;20045;-71
2020/12/31 11:00:37;;;;;;;1.17;1.08;;;;;;;;;;4891996;29;20477;-71
2020/12/31 11:03:03;;;;;;;2.25;0.90;;;;;;;;;;4890260;29;20032;-71
2020/12/31 11:05:29;;;;;;;2.25;1.35;;;;;;;;;;4894289;29;20044;-71
2020/12/31 11:07:55;;;;;;;0.90;0.88;;;;;;;;;;4895173;29;20092;-71
2020/12/31 11:10:21;;;;;;;1.20;1.10;;;;;;;;;;4889378;29;20040;-71
2020/12/31 11:12:47;;;;;;;3.25;1.08;;;;;;;;;;4893129;29;20041;-71
2020/12/31 11:15:13;;;;;;;1.30;1.20;;;;;;;;;;4890733;29;20074;-71
2020/12/31 11:17:40;;;;;;;1.88;1.60;;;;;;;;;;4891053;29;20055;-71
2020/12/31 11:20:06;;;;;;;2.38;1.30;;;;;;;;;;4895271;29;20045;-71
2020/12/31 11:22:32;;;;;;;1.50;1.30;;;;;;;;;;4895342;29;20450;-71
2020/12/31 11:24:58;;;;;;;4.22;1.50;;;;;;;;;;4894183;29;20151;-71
2020/12/31 11:27:25;;;;;;;1.80;1.30;;;;;;;;;;4891784;29;20052;-71
2020/12/31 11:29:51;;;;;;;1.73;1.48;;;;;;;;;;4893755;29;20045;-71
2020/12/31 11:32:17;;;;;;;2.05;1.20;;;;;;;;;;4893730;29;20044;-71
2020/12/31 11:34:43;;;;;;;1.77;1.25;;;;;;;;;;4891326;29;20040;-71
2020/12/31 11:37:09;;;;;;;1.77;1.13;;;;;;;;;;4886765;29;20084;-71
2020/12/31 11:39:36;;;;;;;1.30;1.15;;;;;;;;;;4895961;29;20048;-71
2020/12/31 11:42:02;;;;;;;1.40;1.30;;;;;;;;;;4888802;29;20045;-71
2020/12/31 11:44:28;;;;;;;0.90;0.90;;;;;;;;;;4893563;29;20533;-71
2020/12/31 11:47:00;;;;;;;1.05;0.90;;;;;;;;;;4888029;29;20055;-70
2020/12/31 11:49:26;;;;;;;1.42;0.90;;;;;;;;;;4893388;29;20117;-71
2020/12/31 11:51:56;;;;;;;0.82;0.82;;;;;;;;;;4893332;29;20050;-70
2020/12/31 11:54:22;;;;;;;0.80;0.80;;;;;;;;;;4891666;29;20048;-70
2020/12/31 11:56:48;;;;;;;1.08;0.80;;;;;;;;;;4888026;29;20046;-71
2020/12/31 11:59:14;;;;;;;1.20;0.90;;;;;;;;;;4890508;29;20051;-70
2020/12/31 12:01:40;;;;;;;1.23;1.00;;;;;;;;;;4894632;29;20123;-71
2020/12/31 12:04:06;;;;;;;1.10;0.93;;;;;;;;;;4877031;29;20461;-70
2020/12/31 12:06:32;;;;;;;3.05;1.90;;;;;;;;;;4892028;29;20051;-70
2020/12/31 12:08:59;;;;;;;1.10;1.00;;;;;;;;;;4888923;29;20396;-71
2020/12/31 12:11:29;;;;;;;1.40;1.20;;;;;;;;;;4892332;29;20041;-70
2020/12/31 12:13:55;;;;;;;2.03;1.48;;;;;;;;;;4887639;29;20048;-70
2020/12/31 12:16:22;;;;;;;1.00;0.90;;;;;;;;;;4894199;29;20055;-71
2020/12/31 12:18:48;;;;;;;1.83;1.48;;;;;;;;;;4888660;29;20606;-71
2020/12/31 12:21:18;;;;;;;2.45;1.40;;;;;;;;;;4892130;29;20068;-71
2020/12/31 12:23:45;;;;;;;4.45;1.48;;;;;;;;;;4891053;29;20517;-70
2020/12/31 12:26:16;;;;;;;1.65;1.52;;;;;;;;;;4891659;29;20591;-70
2020/12/31 12:28:42;;;;;;;2.17;1.77;;;;;;;;;;4891071;29;20147;-70
2020/12/31 12:31:08;;;;;;;1.20;1.10;;;;;;;;;;4889476;29;20364;-71
2020/12/31 12:33:34;;;;;;;1.58;1.30;;;;;;;;;;4892202;29;20045;-70
2020/12/31 12:36:01;;;;;;;1.75;1.50;;;;;;;;;;4893871;29;20052;-70
2020/12/31 12:38:27;;;;;;;1.67;1.02;;;;;;;;;;4894761;29;20041;-71
2020/12/31 12:40:54;;;;;;;2.38;1.15;;;;;;;;;;4878358;29;20060;-71
2020/12/31 12:43:20;;;;;;;1.63;1.45;;;;;;;;;;4875951;29;20419;-71
2020/12/31 12:45:46;;;;;;;1.52;1.40;;;;;;;;;;4894961;29;20055;-70
2020/12/31 12:48:12;;;;;;;1.85;1.45;;;;;;;;;;4895308;29;20060;-71
2020/12/31 12:50:38;;;;;;;4.40;1.30;;;;;;;;;;4895598;29;20056;-71
2020/12/31 12:53:04;;;;;;;1.90;1.27;;;;;;;;;;4893963;29;20072;-71
2020/12/31 12:55:30;;;;;;;1.52;1.23;;;;;;;;;;4895182;29;20041;-71
2020/12/31 12:57:56;;;;;;;1.38;1.27;;;;;;;;;;4893480;29;20055;-71
2020/12/31 13:00:22;;;;;;;1.75;1.20;;;;;;;;;;4895202;29;20044;-71
2020/12/31 13:02:48;;;;;;;1.70;1.27;;;;;;;;;;4895441;29;20074;-71
2020/12/31 13:05:14;;;;;;;1.88;1.20;;;;;;;;;;4895385;29;20036;-71
2020/12/31 13:07:40;;;;;;;1.55;1.38;;;;;;;;;;4895450;29;20078;-71
2020/12/31 13:10:07;;;;;;;1.65;0.90;;;;;;;;;;4895383;29;20053;-71
2020/12/31 13:12:33;;;;;;;1.42;1.30;;;;;;;;;;4894122;29;20054;-70
2020/12/31 13:14:59;;;;;;;1.60;1.20;;;;;;;;;;4893648;29;20055;-70
2020/12/31 13:17:26;;;;;;;1.48;1.08;;;;;;;;;;4894313;29;20808;-70
2020/12/31 13:19:53;;;;;;;0.98;0.88;;;;;;;;;;4890923;29;20123;-70
2020/12/31 13:22:19;;;;;;;1.20;1.10;;;;;;;;;;4894210;29;20061;-70
2020/12/31 13:24:45;;;;;;;0.95;0.88;;;;;;;;;;4893043;29;20044;-70
2020/12/31 13:27:14;;;;;;;3.08;1.02;;;;;;;;;;4894806;29;20045;-70
2020/12/31 13:29:40;;;;;;;3.42;1.33;;;;;;;;;;4877518;29;20505;-70
2020/12/31 13:32:06;;;;;;;1.20;1.05;;;;;;;;;;4894050;29;20045;-70
2020/12/31 13:34:32;;;;;;;1.08;0.98;;;;;;;;;;4892774;29;20111;-71
2020/12/31 13:36:58;;;;;;;1.10;1.00;;;;;;;;;;4893803;29;20791;-71
2020/12/31 13:39:24;;;;;;;1.73;1.10;;;;;;;;;;4894225;29;20053;-71
2020/12/31 13:41:50;;;;;;;34.33;20.83;;;;;;;;;;4877436;29;20075;-71
2020/12/31 13:44:18;;;;;;;2.17;1.63;;;;;;;;;;4893130;29;20052;-71
2020/12/31 13:46:49;;;;;;;4.28;1.88;;;;;;;;;;4890873;29;20060;-70
2020/12/31 13:49:15;;;;;;;2.30;1.75;;;;;;;;;;4892267;29;20082;-71
2020/12/31 13:51:41;;;;;;;1.52;1.10;;;;;;;;;;4893057;29;20105;-71
2020/12/31 13:54:07;;;;;;;1.20;1.10;;;;;;;;;;4893547;29;20040;-71
2020/12/31 13:56:33;;;;;;;1.10;1.00;;;;;;;;;;4894510;29;20056;-71
2020/12/31 13:59:01;;;;;;;5.47;1.77;;;;;;;;;;4894365;29;20040;-71
2020/12/31 14:01:27;;;;;;;1.05;0.77;;;;;;;;;;4893285;29;20048;-71
2020/12/31 14:04:01;;;;;;;1.20;0.98;;;;;;;;;;4875388;29;20136;-71
2020/12/31 14:06:28;;;;;;;1.08;0.85;;;;;;;;;;4893241;29;20068;-71
2020/12/31 14:08:54;;;;;;;1.65;1.00;;;;;;;;;;4894478;29;20565;-71
2020/12/31 14:11:20;;;;;;;1.88;1.17;;;;;;;;;;4891990;29;20069;-71
2020/12/31 14:13:46;;;;;;;1.50;1.02;;;;;;;;;;4894518;29;20053;-71
2020/12/31 14:16:16;;;;;;;1.50;1.20;;;;;;;;;;4893018;29;20049;-70
2020/12/31 14:18:42;;;;;;;2.15;1.27;;;;;;;;;;4894009;29;20048;-70
2020/12/31 14:21:08;;;;;;;1.30;1.15;;;;;;;;;;4892949;29;20493;-70
2020/12/31 14:23:34;;;;;;;1.67;1.33;;;;;;;;;;4893924;29;20048;-70
2020/12/31 14:26:01;;;;;;;1.77;1.40;;;;;;;;;;4892230;29;20060;-70
2020/12/31 14:28:27;;;;;;;1.92;1.17;;;;;;;;;;4893490;29;20042;-71
2020/12/31 14:30:54;;;;;;;3.47;1.42;;;;;;;;;;4891686;29;20052;-70
2020/12/31 14:33:20;;;;;;;1.67;1.45;;;;;;;;;;4893076;29;20048;-70
2020/12/31 14:35:46;;;;;;;3.78;1.88;;;;;;;;;;4893462;29;20513;-72
2020/12/31 14:38:12;;;;;;;1.60;1.50;;;;;;;;;;4893612;29;20045;-71
2020/12/31 14:40:38;;;;;;;1.33;1.10;;;;;;;;;;4893998;29;20055;-70
2020/12/31 14:43:07;;;;;;;1.63;1.48;;;;;;;;;;4893473;29;20780;-70
2020/12/31 14:45:33;;;;;;;2.22;1.60;;;;;;;;;;4893615;29;20059;-70